createdAt,value
2018-01-27T00:02:24.000Z,24.4
2018-01-27T00:12:24.000Z,24.29
2018-01-27T00:22:24.000Z,24.26
2018-01-27T00:32:24.000Z,24.17
2018-01-27T00:42:24.000Z,24.12
2018-01-27T00:52:24.000Z,24.05
2018-01-27T01:02:24.000Z,24.01
2018-01-27T01:12:24.000Z,24.01
2018-01-27T01:22:25.000Z,23.87
2018-01-27T01:32:24.000Z,23.73
2018-01-27T01:42:24.000Z,23.67
2018-01-27T01:52:24.000Z,23.62
2018-01-27T02:02:25.000Z,23.54
2018-01-27T02:12:25.000Z,23.48
2018-01-27T02:22:25.000Z,23.43
2018-01-27T02:32:25.000Z,23.37
2018-01-27T02:42:25.000Z,23.33
2018-01-27T02:52:25.000Z,23.23
2018-01-27T03:02:25.000Z,23.18
2018-01-27T03:12:25.000Z,23.15
2018-01-27T03:22:25.000Z,23.1
2018-01-27T03:32:25.000Z,23.05
2018-01-27T03:42:25.000Z,23.03
2018-01-27T03:52:25.000Z,23
2018-01-27T04:02:25.000Z,22.95
2018-01-27T04:12:25.000Z,22.94
2018-01-27T04:22:25.000Z,22.92
2018-01-27T04:32:25.000Z,22.86
2018-01-27T04:42:25.000Z,22.87
2018-01-27T04:52:25.000Z,22.83
2018-01-27T05:02:25.000Z,22.83
2018-01-27T05:12:25.000Z,22.87
2018-01-27T05:22:25.000Z,22.83
2018-01-27T05:32:25.000Z,22.87
2018-01-27T05:42:25.000Z,22.87
2018-01-27T05:52:25.000Z,22.88
2018-01-27T06:02:25.000Z,22.93
2018-01-27T06:12:25.000Z,22.95
2018-01-27T06:22:25.000Z,22.96
2018-01-27T06:32:25.000Z,23
2018-01-27T06:42:25.000Z,23.05
2018-01-27T06:52:25.000Z,23.11
2018-01-27T07:02:25.000Z,23.14
2018-01-27T07:12:25.000Z,23.14
2018-01-27T07:22:25.000Z,23.21
2018-01-27T07:32:26.000Z,23.24
2018-01-27T07:42:25.000Z,23.27
2018-01-27T07:52:25.000Z,23.3
2018-01-27T08:02:25.000Z,23.32
2018-01-27T08:12:25.000Z,23.39
2018-01-27T08:22:25.000Z,23.38
2018-01-27T08:32:26.000Z,23.46
2018-01-27T08:42:25.000Z,23.49
2018-01-27T08:52:25.000Z,23.51
2018-01-27T09:02:25.000Z,23.58
2018-01-27T09:12:25.000Z,23.64
2018-01-27T09:22:25.000Z,23.67
2018-01-27T09:32:25.000Z,23.64
2018-01-27T09:42:25.000Z,23.98
2018-01-27T09:52:25.000Z,24.25
2018-01-27T10:02:25.000Z,24.49
2018-01-27T10:12:25.000Z,24.66
2018-01-27T10:22:25.000Z,24.78
2018-01-27T10:32:26.000Z,24.55
2018-01-27T10:42:26.000Z,24.51
2018-01-27T10:52:26.000Z,24.63
2018-01-27T11:02:26.000Z,24.55
2018-01-27T11:12:26.000Z,24.44
2018-01-27T11:22:26.000Z,24.4
2018-01-27T11:32:26.000Z,24.43
2018-01-27T11:42:26.000Z,24.45
2018-01-27T11:52:26.000Z,24.31
2018-01-27T12:02:26.000Z,24.34
2018-01-27T12:12:26.000Z,24.46
2018-01-27T12:22:26.000Z,24.33
2018-01-27T12:32:26.000Z,24.33
2018-01-27T12:42:26.000Z,24.36
2018-01-27T12:52:26.000Z,24.38
2018-01-27T13:02:26.000Z,24.39
2018-01-27T13:12:26.000Z,24.35
2018-01-27T13:22:26.000Z,24.48
2018-01-27T13:32:26.000Z,24.47
2018-01-27T13:42:26.000Z,24.53
2018-01-27T13:52:26.000Z,24.51
2018-01-27T14:02:26.000Z,24.72
2018-01-27T14:12:26.000Z,24.67
2018-01-27T14:22:26.000Z,24.53
2018-01-27T14:32:29.000Z,24.55
2018-01-27T14:42:26.000Z,24.57
2018-01-27T14:52:26.000Z,24.43
2018-01-27T15:02:26.000Z,24.37
2018-01-27T15:12:26.000Z,24.41
2018-01-27T15:22:26.000Z,24.36
2018-01-27T15:32:26.000Z,24.32
2018-01-27T15:42:26.000Z,24.31
2018-01-27T15:52:26.000Z,24.26
2018-01-27T16:02:26.000Z,24.27
2018-01-27T16:12:26.000Z,24.24
2018-01-27T16:22:26.000Z,24.29
2018-01-27T16:32:26.000Z,24.31
2018-01-27T16:42:26.000Z,24.31
2018-01-27T16:52:26.000Z,24.3
2018-01-27T17:02:26.000Z,24.33
2018-01-27T17:12:26.000Z,24.36
2018-01-27T17:22:26.000Z,24.36
2018-01-27T17:32:27.000Z,24.41
2018-01-27T17:42:26.000Z,24.4
2018-01-27T17:52:26.000Z,24.42
2018-01-27T18:02:26.000Z,24.45
2018-01-27T18:12:26.000Z,24.45
2018-01-27T18:22:26.000Z,24.47
2018-01-27T18:32:26.000Z,24.49
2018-01-27T18:42:27.000Z,24.5
2018-01-27T18:52:27.000Z,24.45
2018-01-27T19:02:27.000Z,24.38
2018-01-27T19:12:27.000Z,24.33
2018-01-27T19:22:27.000Z,24.35
2018-01-27T19:32:27.000Z,24.37
2018-01-27T19:42:27.000Z,24.42
2018-01-27T19:52:27.000Z,24.42
2018-01-27T20:02:27.000Z,24.43
2018-01-27T20:12:27.000Z,24.46
2018-01-27T20:22:27.000Z,24.46
2018-01-27T20:32:27.000Z,24.53
2018-01-27T20:42:27.000Z,24.53
2018-01-27T20:52:30.000Z,24.55
2018-01-27T21:02:27.000Z,24.58
2018-01-27T21:12:27.000Z,24.58
2018-01-27T21:22:27.000Z,24.57
2018-01-27T21:32:27.000Z,24.57
2018-01-27T21:42:27.000Z,24.57
2018-01-27T21:52:27.000Z,24.57
2018-01-27T22:02:27.000Z,24.58
2018-01-27T22:12:27.000Z,24.52
2018-01-27T22:22:27.000Z,24.53
2018-01-27T22:32:27.000Z,24.51
2018-01-27T22:42:27.000Z,24.51
2018-01-27T22:52:27.000Z,24.46
2018-01-27T23:02:27.000Z,24.4
2018-01-27T23:12:27.000Z,24.37
2018-01-27T23:22:27.000Z,24.31
2018-01-27T23:32:27.000Z,24.25
2018-01-27T23:42:27.000Z,24.18
2018-01-27T23:52:27.000Z,24.13
